Time;durP1;ratioP1;P1;durP2;ratioP2;P2;SDS_P1;SDS_P2;PMS_P1;PMS_P2;Temp;Humidity;BMP_temperature;BMP_pressure;BME280_temperature;BME280_humidity;BME280_pressure;Samples;Min_cycle;Max_cycle;Signal;HPM_P1;HPM_P2
2023/05/09 00:02:46;;;;;;;14.50;9.90;;;;;;;3.69;75.39;99788.60;225465;1281;22541;-75
2023/05/09 00:07:49;;;;;;;16.10;10.00;;;;;;;3.67;75.77;99784.61;225426;1278;22538;-75
2023/05/09 00:12:55;;;;;;;12.40;9.30;;;;;;;3.67;75.88;99787.67;225499;1282;22644;-76
2023/05/09 00:17:58;;;;;;;13.40;9.90;;;;;;;3.66;75.88;99783.06;225468;1265;22544;-76
2023/05/09 00:23:01;;;;;;;14.80;9.60;;;;;;;3.67;76.12;99780.09;225548;1265;22538;-75
2023/05/09 00:28:04;;;;;;;14.40;10.40;;;;;;;3.63;76.07;99780.16;225365;1282;22537;-76
2023/05/09 00:33:06;;;;;;;13.30;9.50;;;;;;;3.61;76.11;99786.11;225504;1280;22529;-76
2023/05/09 00:38:28;;;;;;;15.10;10.10;;;;;;;3.54;76.18;99781.25;225513;1282;23231;-75
2023/05/09 00:43:38;;;;;;;12.60;9.90;;;;;;;3.46;76.30;99775.73;225440;1278;22540;-76
2023/05/09 00:48:41;;;;;;;15.50;10.50;;;;;;;3.39;76.33;99768.79;225530;1278;22523;-75
2023/05/09 00:53:44;;;;;;;13.90;10.60;;;;;;;3.34;76.54;99762.44;225507;1282;22529;-77
2023/05/09 00:59:09;;;;;;;14.30;9.90;;;;;;;3.30;76.82;99760.31;225385;1281;22552;-76
2023/05/09 01:04:17;;;;;;;15.80;10.80;;;;;;;3.25;77.03;99761.18;225455;1281;23008;-76
2023/05/09 01:09:41;;;;;;;14.60;11.20;;;;;;;3.20;77.02;99749.73;225562;1282;22528;-77
2023/05/09 01:15:25;;;;;;;16.10;11.10;;;;;;;3.16;77.19;99751.28;225414;1281;22524;-77
2023/05/09 01:20:55;;;;;;;15.10;10.60;;;;;;;3.10;77.15;99745.59;225410;1283;22549;-74
2023/05/09 01:26:18;;;;;;;;;;;;;;;3.06;77.38;99744.59;225363;1281;22541;-75
2023/05/09 01:31:42;;;;;;;18.70;10.90;;;;;;;3.00;77.51;99742.60;225411;1281;22540;-75
2023/05/09 01:36:53;;;;;;;16.90;11.30;;;;;;;2.94;77.51;99740.11;225337;1282;22547;-75
2023/05/09 01:42:00;;;;;;;16.60;11.20;;;;;;;2.88;77.58;99737.58;225594;1279;22536;-75
2023/05/09 01:47:03;;;;;;;16.30;11.50;;;;;;;2.83;77.82;99739.64;225482;1281;22540;-75
2023/05/09 01:52:18;;;;;;;18.70;12.70;;;;;;;2.79;77.82;99736.64;225435;1281;22631;-75
2023/05/09 01:57:31;;;;;;;14.30;11.50;;;;;;;2.76;77.75;99731.85;225416;1281;22547;-75
2023/05/09 02:02:36;;;;;;;16.70;11.30;;;;;;;2.73;78.10;99728.81;225381;1282;22525;-75
2023/05/09 02:07:41;;;;;;;20.50;12.20;;;;;;;2.73;78.33;99728.24;225544;1282;25281;-75
2023/05/09 02:12:49;;;;;;;15.50;9.00;;;;;;;2.74;78.34;99733.09;225348;1282;25412;-76
2023/05/09 02:18:10;;;;;;;;;;;;;;;2.70;78.38;99730.00;225534;1282;22532;-75
2023/05/09 02:23:23;;;;;;;14.40;10.60;;;;;;;2.64;78.17;99722.67;225551;1280;23295;-76
2023/05/09 02:28:30;;;;;;;14.70;9.60;;;;;;;2.56;78.49;99718.56;225563;1282;22528;-76
2023/05/09 02:33:38;;;;;;;16.00;10.70;;;;;;;2.48;78.34;99717.63;225514;1281;22539;-76
2023/05/09 02:38:41;;;;;;;16.40;11.10;;;;;;;2.41;78.33;99715.20;225402;1282;22541;-75
2023/05/09 02:43:48;;;;;;;15.30;10.90;;;;;;;2.37;78.87;99711.64;225460;1281;25415;-76
2023/05/09 02:48:51;;;;;;;19.80;12.30;;;;;;;2.43;79.63;99709.98;225464;1281;22539;-76
2023/05/09 02:54:14;;;;;;;18.50;12.60;;;;;;;2.49;79.51;99713.17;225439;1282;22527;-76
2023/05/09 02:59:19;;;;;;;16.00;11.10;;;;;;;2.53;79.63;99718.46;225542;1279;22566;-75
2023/05/09 03:04:30;;;;;;;15.60;11.60;;;;;;;2.58;79.68;99715.48;225468;1281;22568;-76
2023/05/09 03:09:36;;;;;;;14.90;11.60;;;;;;;2.57;79.35;99711.60;225484;1279;22534;-76
2023/05/09 03:14:46;;;;;;;16.20;11.50;;;;;;;2.56;79.80;99710.27;225425;1265;22645;-76
2023/05/09 03:19:52;;;;;;;21.40;13.90;;;;;;;2.55;79.48;99708.03;225511;1282;22539;-76
2023/05/09 03:24:55;;;;;;;20.90;13.70;;;;;;;2.54;79.43;99715.76;225471;1282;22579;-75
2023/05/09 03:30:00;;;;;;;18.30;13.30;;;;;;;2.55;79.70;99714.67;225352;1281;22556;-76
2023/05/09 03:35:44;;;;;;;17.90;13.60;;;;;;;2.59;79.88;99712.79;225499;1280;22530;-76
2023/05/09 03:41:43;;;;;;;20.60;14.30;;;;;;;2.73;79.71;99721.80;225527;1282;22562;-75
2023/05/09 03:47:11;;;;;;;21.80;14.30;;;;;;;2.86;79.84;99722.95;225545;1272;22595;-75
2023/05/09 03:52:20;;;;;;;21.90;15.90;;;;;;;2.98;80.06;99722.19;225521;1281;23124;-76
2023/05/09 03:57:34;;;;;;;23.00;15.80;;;;;;;3.09;79.88;99721.48;225561;1281;22562;-76
2023/05/09 04:02:46;;;;;;;18.90;13.80;;;;;;;3.20;79.85;99721.53;225552;1282;25406;-76
2023/05/09 04:07:59;;;;;;;19.70;14.30;;;;;;;3.32;79.77;99719.06;225514;1280;22584;-76
2023/05/09 04:13:15;;;;;;;18.90;14.50;;;;;;;3.43;79.87;99721.63;225490;1281;22553;-76
2023/05/09 04:18:49;;;;;;;18.90;14.40;;;;;;;3.56;79.88;99719.61;225602;1282;23131;-76
2023/05/09 04:23:52;;;;;;;18.90;13.70;;;;;;;3.66;79.76;99717.41;225369;1282;22582;-75
2023/05/09 04:29:26;;;;;;;19.60;13.80;;;;;;;3.83;80.11;99709.58;225463;1282;22574;-75
2023/05/09 04:34:34;;;;;;;17.20;13.50;;;;;;;4.04;80.21;99703.60;225414;1282;22564;-75
2023/05/09 04:39:57;;;;;;;20.20;14.40;;;;;;;4.23;80.21;99697.28;225497;1282;21749;-76
2023/05/09 04:45:12;;;;;;;17.60;12.70;;;;;;;4.46;80.38;99700.81;225529;1282;22616;-76
2023/05/09 04:50:25;;;;;;;16.50;12.60;;;;;;;4.70;80.28;99698.46;225290;1281;22537;-76
2023/05/09 04:55:38;;;;;;;17.00;13.30;;;;;;;4.89;80.15;99703.80;225518;1260;22540;-75
2023/05/09 05:00:46;;;;;;;17.20;12.50;;;;;;;5.08;80.18;99701.67;225527;1282;22647;-76
2023/05/09 05:05:52;;;;;;;17.00;11.80;;;;;;;5.29;80.01;99699.84;225548;1281;22578;-76
2023/05/09 05:10:58;;;;;;;14.90;11.40;;;;;;;5.53;80.29;99691.98;225492;1282;22556;-76
2023/05/09 05:16:21;;;;;;;;;;;;;;;5.82;79.98;99696.67;225524;1282;22529;-77
2023/05/09 05:21:38;;;;;;;16.30;11.20;;;;;;;6.02;79.48;99694.15;225459;1279;22697;-76
2023/05/09 05:26:48;;;;;;;12.90;9.90;;;;;;;6.24;79.56;99690.99;225447;1282;22538;-76
2023/05/09 05:32:19;;;;;;;12.10;9.50;;;;;;;6.49;79.33;99690.63;225433;1282;25236;-76
2023/05/09 05:37:32;;;;;;;14.10;9.30;;;;;;;6.72;78.95;99686.38;225359;1264;22548;-76
2023/05/09 05:42:37;;;;;;;12.00;8.80;;;;;;;6.96;78.62;99681.17;225419;1282;22586;-76
2023/05/09 05:48:05;;;;;;;11.20;8.40;;;;;;;7.26;78.67;99681.45;225380;1282;23288;-76
2023/05/09 05:53:07;;;;;;;11.50;8.90;;;;;;;7.51;77.80;99673.84;225329;1260;22590;-77
2023/05/09 05:58:15;;;;;;;10.90;8.40;;;;;;;7.78;77.54;99672.08;225142;1273;22625;-76
2023/05/09 06:03:21;;;;;;;9.90;7.80;;;;;;;8.13;77.61;99668.65;224935;1275;22554;-76
2023/05/09 06:08:40;;;;;;;12.70;8.50;;;;;;;8.46;76.46;99673.64;224744;1261;137953;-77
2023/05/09 06:13:49;;;;;;;10.20;7.90;;;;;;;8.75;75.84;99677.11;224962;1267;138196;-76
2023/05/09 06:19:10;;;;;;;9.40;7.60;;;;;;;8.95;74.64;99673.84;225035;1260;138116;-76
2023/05/09 06:24:26;;;;;;;9.40;7.80;;;;;;;9.14;73.88;99659.95;224958;1277;138807;-76
2023/05/09 06:30:08;;;;;;;8.90;7.30;;;;;;;9.28;73.59;99651.84;224910;1281;137922;-75
2023/05/09 06:35:35;;;;;;;12.20;7.10;;;;;;;9.42;73.02;99645.02;224964;1282;137950;-76
2023/05/09 06:40:51;;;;;;;10.70;7.50;;;;;;;9.54;72.35;99641.70;225099;1279;22549;-76
2023/05/09 06:46:05;;;;;;;8.70;7.40;;;;;;;9.68;71.96;99645.46;224863;1268;137736;-76
2023/05/09 06:51:21;;;;;;;7.50;6.50;;;;;;;9.86;71.48;99634.09;225039;1261;137857;-76
2023/05/09 06:56:32;;;;;;;9.20;6.50;;;;;;;10.01;70.43;99627.41;224820;1263;137924;-75
2023/05/09 07:01:44;;;;;;;8.50;6.10;;;;;;;10.15;69.99;99630.04;224961;1261;138113;-76
2023/05/09 07:06:54;;;;;;;6.90;5.90;;;;;;;10.28;69.72;99630.43;224915;1267;138103;-76
2023/05/09 07:11:59;;;;;;;8.90;6.00;;;;;;;10.46;69.41;99622.73;225026;1264;138073;-76
2023/05/09 07:17:02;;;;;;;9.40;6.10;;;;;;;10.63;68.19;99623.02;224654;1275;138496;-76
2023/05/09 07:22:27;;;;;;;8.40;5.70;;;;;;;10.81;68.15;99611.38;224977;1276;22543;-76
2023/05/09 07:27:39;;;;;;;7.00;5.10;;;;;;;11.06;67.30;99604.83;224857;1276;138953;-76
2023/05/09 07:32:54;;;;;;;10.30;5.10;;;;;;;11.24;65.43;99600.96;224867;1274;137700;-76
2023/05/09 07:38:12;;;;;;;6.60;4.80;;;;;;;11.40;65.49;99591.66;224900;1277;137643;-78
2023/05/09 07:43:20;;;;;;;6.90;4.90;;;;;;;11.55;64.81;99591.27;225121;1283;137481;-76
2023/05/09 07:48:37;;;;;;;7.90;5.20;;;;;;;11.73;64.06;99590.45;224975;1270;137421;-75
2023/05/09 07:53:40;;;;;;;6.50;4.60;;;;;;;11.88;63.04;99581.39;225001;1267;137408;-77
2023/05/09 07:58:42;;;;;;;8.20;5.20;;;;;;;12.01;62.93;99581.02;224992;1261;22571;-74
2023/05/09 08:03:44;;;;;;;5.80;4.50;;;;;;;12.19;62.91;99576.61;225041;1263;137117;-74
2023/05/09 08:08:47;;;;;;;7.00;4.20;;;;;;;12.30;62.13;99577.36;224905;1278;137231;-72
2023/05/09 08:13:50;;;;;;;8.90;4.10;;;;;;;12.37;62.27;99569.30;224802;1281;137414;-72
2023/05/09 08:18:59;;;;;;;6.50;4.20;;;;;;;12.51;61.59;99563.70;224920;1276;137547;-74
2023/05/09 08:24:09;;;;;;;7.60;4.30;;;;;;;12.60;61.63;99559.27;224913;1259;137537;-75
2023/05/09 08:29:19;;;;;;;6.70;4.00;;;;;;;12.82;62.02;99562.84;224905;1275;137388;-76
2023/05/09 08:34:33;;;;;;;5.20;3.30;;;;;;;13.06;61.80;99552.11;225081;1277;24249;-75
2023/05/09 08:39:36;;;;;;;3.20;2.90;;;;;;;13.26;60.97;99545.69;224912;1268;137068;-76
2023/05/09 08:44:38;;;;;;;3.80;3.20;;;;;;;13.34;60.39;99544.55;225202;1276;137185;-74
2023/05/09 08:49:44;;;;;;;7.20;3.70;;;;;;;13.39;59.74;99537.13;225059;1280;137417;-74
2023/05/09 08:54:52;;;;;;;6.60;3.40;;;;;;;13.47;59.67;99534.13;225041;1280;137438;-74
2023/05/09 08:59:55;;;;;;;6.70;3.50;;;;;;;13.54;59.53;99531.98;224902;1272;137521;-73
2023/05/09 09:04:57;;;;;;;4.70;3.30;;;;;;;13.64;58.78;99536.95;225091;1276;22540;-73
2023/05/09 09:10:10;;;;;;;6.80;4.90;;;;;;;13.74;59.08;99538.28;225066;1280;22772;-76
2023/05/09 09:15:18;;;;;;;3.40;3.10;;;;;;;13.89;58.85;99532.98;224913;1283;137494;-75
2023/05/09 09:20:33;;;;;;;7.30;3.70;;;;;;;14.00;58.43;99537.41;224842;1263;137494;-75
2023/05/09 09:25:38;;;;;;;4.30;3.90;;;;;;;14.08;57.70;99534.96;224760;1276;137853;-74
2023/05/09 09:30:52;;;;;;;4.70;4.00;;;;;;;14.10;57.73;99528.27;224840;1283;137449;-75
2023/05/09 09:35:55;;;;;;;7.20;3.80;;;;;;;14.23;57.88;99527.05;224887;1276;137443;-77
2023/05/09 09:40:58;;;;;;;4.80;4.40;;;;;;;14.31;58.03;99523.02;224891;1264;22558;-75
2023/05/09 09:46:09;;;;;;;8.60;4.70;;;;;;;14.32;58.00;99517.52;224912;1277;24272;-76
2023/05/09 09:51:11;;;;;;;5.30;4.60;;;;;;;14.31;57.90;99516.85;224692;1263;137034;-77
2023/05/09 09:56:14;;;;;;;8.10;4.60;;;;;;;14.37;58.28;99513.25;224993;1273;137530;-75
2023/05/09 10:01:25;;;;;;;5.00;4.00;;;;;;;14.60;58.36;99512.45;224810;1279;137726;-76
2023/05/09 10:06:27;;;;;;;5.10;4.20;;;;;;;14.86;57.59;99502.35;225021;1279;137369;-76
2023/05/09 10:11:37;;;;;;;5.20;3.70;;;;;;;15.09;56.51;99504.25;224989;1280;137447;-76
2023/05/09 10:16:43;;;;;;;6.60;4.10;;;;;;;15.20;56.68;99495.43;225240;1278;22555;-76
2023/05/09 10:21:54;;;;;;;4.70;3.50;;;;;;;15.36;56.52;99495.37;225174;1275;137891;-76
2023/05/09 10:27:05;;;;;;;4.30;3.30;;;;;;;15.64;55.88;99499.23;225157;1272;137497;-75
2023/05/09 10:32:20;;;;;;;5.10;3.40;;;;;;;15.89;55.61;99490.39;225088;1276;138166;-76
2023/05/09 10:37:29;;;;;;;6.00;3.60;;;;;;;16.16;55.76;99487.47;224897;1271;170663;-76
2023/05/09 10:42:34;;;;;;;4.20;3.10;;;;;;;16.39;54.31;99486.13;225045;1260;137508;-76
2023/05/09 10:47:41;;;;;;;3.30;2.50;;;;;;;16.69;54.84;99476.05;224772;1267;137373;-76
2023/05/09 10:53:15;;;;;;;4.10;2.80;;;;;;;16.99;54.01;99463.91;225175;1270;24579;-74
2023/05/09 10:58:39;;;;;;;3.60;2.60;;;;;;;17.16;52.46;99455.36;224879;1279;25359;-74
2023/05/09 11:03:56;;;;;;;2.80;2.50;;;;;;;17.16;52.87;99448.99;224756;1263;137347;-76
2023/05/09 11:09:23;;;;;;;2.60;2.10;;;;;;;17.38;52.18;99442.38;225107;1268;137451;-73
2023/05/09 11:14:36;;;;;;;3.70;2.50;;;;;;;17.38;52.29;99448.13;225167;1278;137691;-75
2023/05/09 11:19:50;;;;;;;2.40;2.20;;;;;;;17.17;51.31;99443.45;225044;1282;137388;-75
2023/05/09 11:25:24;;;;;;;4.80;2.60;;;;;;;17.09;51.35;99436.50;225139;1263;137402;-74
2023/05/09 11:30:44;;;;;;;2.10;1.90;;;;;;;17.09;50.60;99429.20;224883;1274;137429;-76
2023/05/09 11:35:47;;;;;;;3.50;2.30;;;;;;;16.81;49.73;99420.89;225003;1275;138017;-76
2023/05/09 11:40:50;;;;;;;2.50;2.20;;;;;;;16.90;51.05;99408.97;225001;1280;22602;-78
2023/05/09 11:45:54;;;;;;;3.50;2.30;;;;;;;17.17;50.95;99404.58;225020;1279;137256;-77
2023/05/09 11:51:04;;;;;;;3.00;2.50;;;;;;;17.46;51.32;99397.31;225089;1275;137329;-76
2023/05/09 11:56:12;;;;;;;3.90;2.20;;;;;;;17.76;51.02;99397.58;225093;1279;137426;-76
2023/05/09 12:01:24;;;;;;;3.60;2.40;;;;;;;18.03;50.59;99384.77;225074;1276;137370;-76
2023/05/09 12:06:29;;;;;;;4.50;2.10;;;;;;;18.04;49.72;99380.96;225024;1275;137539;-76
2023/05/09 12:11:35;;;;;;;2.50;2.30;;;;;;;18.13;50.02;99365.77;225110;1278;137639;-76
2023/05/09 12:16:47;;;;;;;3.50;2.20;;;;;;;18.20;49.36;99357.91;225197;1278;22717;-77
2023/05/09 12:21:55;;;;;;;2.30;2.00;;;;;;;18.18;49.16;99356.04;225137;1271;137992;-76
2023/05/09 12:27:11;;;;;;;2.90;2.10;;;;;;;18.26;49.25;99350.07;224942;1282;137599;-75
2023/05/09 12:32:40;;;;;;;4.20;2.40;;;;;;;18.35;48.91;99344.90;224947;1283;137850;-77
2023/05/09 12:38:05;;;;;;;2.70;2.20;;;;;;;18.37;49.06;99335.16;225019;1264;137964;-74
2023/05/09 12:43:13;;;;;;;4.70;2.10;;;;;;;18.48;49.13;99327.81;225042;1262;138166;-76
2023/05/09 12:48:22;;;;;;;2.80;1.90;;;;;;;18.49;48.37;99324.02;225020;1282;137623;-75
2023/05/09 12:53:35;;;;;;;5.40;2.40;;;;;;;18.48;48.18;99318.80;225114;1265;137418;-74
2023/05/09 12:59:14;;;;;;;2.80;2.20;;;;;;;18.53;47.87;99311.52;225117;1275;22648;-75
2023/05/09 13:04:28;;;;;;;1.80;1.70;;;;;;;18.58;47.74;99307.84;225208;1275;23365;-75
2023/05/09 13:09:33;;;;;;;3.50;2.30;;;;;;;18.57;48.05;99297.77;225021;1279;137008;-76
2023/05/09 13:14:35;;;;;;;2.20;2.00;;;;;;;18.66;47.56;99296.43;224876;1268;137501;-75
2023/05/09 13:19:53;;;;;;;1.60;1.50;;;;;;;18.81;47.52;99290.25;224888;1265;138479;-76
2023/05/09 13:25:05;;;;;;;4.40;2.30;;;;;;;18.71;46.69;99287.26;225030;1278;138301;-76
2023/05/09 13:30:20;;;;;;;3.20;1.90;;;;;;;18.64;46.85;99276.52;224893;1280;137042;-75
2023/05/09 13:35:42;;;;;;;2.70;1.90;;;;;;;18.42;46.71;99270.62;224867;1268;137518;-78
2023/05/09 13:40:50;;;;;;;2.60;2.10;;;;;;;18.24;46.71;99267.95;224839;1262;22592;-75
2023/05/09 13:46:01;;;;;;;1.80;1.70;;;;;;;18.30;47.14;99260.27;224701;1275;137054;-75
2023/05/09 13:51:05;;;;;;;2.80;2.00;;;;;;;18.46;47.14;99256.11;224843;1265;137342;-75
2023/05/09 13:56:11;;;;;;;2.10;1.90;;;;;;;18.80;47.35;99250.92;224895;1264;137456;-75
2023/05/09 14:01:15;;;;;;;2.20;2.00;;;;;;;18.81;46.88;99245.91;224762;1267;137529;-74
2023/05/09 14:06:20;;;;;;;4.60;2.10;;;;;;;18.56;46.57;99236.96;224889;1278;22558;-75
2023/05/09 14:11:29;;;;;;;5.00;2.00;;;;;;;18.46;46.78;99233.40;225256;1279;22567;-74
2023/05/09 14:16:42;;;;;;;2.30;2.10;;;;;;;18.63;46.93;99227.36;225216;1278;22547;-74
2023/05/09 14:21:47;;;;;;;2.60;2.10;;;;;;;18.78;46.94;99217.02;225469;1282;22552;-76
2023/05/09 14:26:59;;;;;;;2.10;1.90;;;;;;;18.73;45.95;99212.67;225509;1282;22529;-75
2023/05/09 14:37:23;;;;;;;3.10;2.10;;;;;;;18.22;46.32;99213.58;225598;1278;22555;-75
2023/05/09 14:42:31;;;;;;;2.40;1.90;;;;;;;18.14;46.14;99207.73;225579;1279;22551;-74
2023/05/09 14:47:41;;;;;;;2.10;1.90;;;;;;;18.09;46.66;99200.76;225588;1280;22566;-74
2023/05/09 14:52:44;;;;;;;3.90;2.30;;;;;;;18.14;46.90;99195.06;225564;1282;22626;-74
2023/05/09 14:57:51;;;;;;;2.40;2.00;;;;;;;18.17;46.74;99184.61;225521;1282;22802;-74
2023/05/09 15:03:05;;;;;;;2.40;2.10;;;;;;;18.12;45.92;99183.70;225247;1280;22554;-74
2023/05/09 15:08:18;;;;;;;2.60;2.20;;;;;;;18.11;46.85;99175.56;225535;1275;22533;-74
2023/05/09 15:13:21;;;;;;;2.70;1.70;;;;;;;18.06;46.40;99172.85;225547;1282;22527;-74
2023/05/09 15:18:27;;;;;;;1.90;1.70;;;;;;;17.96;46.18;99165.81;225570;1278;22557;-73
2023/05/09 15:23:33;;;;;;;3.10;2.40;;;;;;;17.93;46.51;99159.95;225505;1278;25340;-74
2023/05/09 15:28:55;;;;;;;3.70;2.00;;;;;;;17.90;45.98;99157.41;225465;1278;22546;-74
2023/05/09 15:34:15;;;;;;;2.80;2.10;;;;;;;17.88;46.31;99143.83;225537;1275;22535;-74
2023/05/09 15:39:36;;;;;;;2.30;1.80;;;;;;;17.88;46.38;99140.55;225441;1282;22553;-75
2023/05/09 15:44:39;;;;;;;2.40;2.20;;;;;;;17.81;46.33;99141.13;225534;1282;22542;-74
2023/05/09 15:49:51;;;;;;;3.40;2.00;;;;;;;17.75;45.73;99141.88;225520;1280;22539;-73
2023/05/09 15:54:57;;;;;;;2.00;1.90;;;;;;;17.69;45.94;99137.66;225522;1280;22536;-74
2023/05/09 16:00:05;;;;;;;4.20;2.20;;;;;;;17.67;46.01;99133.05;225575;1282;23294;-74
2023/05/09 16:05:26;;;;;;;3.80;1.90;;;;;;;17.64;45.97;99123.14;225564;1263;22555;-74
2023/05/09 16:10:35;;;;;;;3.30;1.90;;;;;;;17.53;46.26;99115.71;225551;1278;22724;-75
2023/05/09 16:15:40;;;;;;;4.40;2.10;;;;;;;17.42;46.01;99109.68;225485;1279;23605;-74
2023/05/09 16:20:53;;;;;;;2.40;2.20;;;;;;;17.35;46.31;99106.76;225452;1281;22575;-74
2023/05/09 16:25:59;;;;;;;3.00;2.10;;;;;;;17.30;46.21;99103.10;225503;1281;22648;-74
2023/05/09 16:31:07;;;;;;;3.30;2.00;;;;;;;17.19;46.35;99101.66;225488;1280;22543;-75
2023/05/09 16:36:20;;;;;;;4.70;1.90;;;;;;;17.06;46.44;99099.39;225532;1282;22550;-75
2023/05/09 16:41:23;;;;;;;2.60;1.90;;;;;;;16.86;46.72;99090.75;225591;1275;22544;-74
2023/05/09 16:46:45;;;;;;;2.90;2.20;;;;;;;16.71;46.92;99087.21;225551;1278;25360;-74
2023/05/09 16:51:59;;;;;;;4.10;1.90;;;;;;;16.55;46.52;99078.66;225565;1282;24450;-74
2023/05/09 16:57:02;;;;;;;3.10;1.90;;;;;;;16.36;46.57;99079.90;225530;1280;23107;-74
2023/05/09 17:02:10;;;;;;;2.70;1.90;;;;;;;16.15;47.15;99071.55;225508;1264;22633;-74
2023/05/09 17:07:14;;;;;;;4.60;2.00;;;;;;;15.93;47.11;99065.70;225500;1282;22545;-73
2023/05/09 17:12:17;;;;;;;4.60;2.10;;;;;;;15.74;47.34;99066.10;225529;1278;22559;-75
2023/05/09 17:17:24;;;;;;;5.10;2.40;;;;;;;15.58;47.95;99057.61;225534;1280;23060;-74
2023/05/09 17:22:29;;;;;;;2.90;2.30;;;;;;;15.41;48.02;99057.92;225484;1281;22550;-74
2023/05/09 17:27:32;;;;;;;4.40;2.20;;;;;;;15.24;48.18;99056.29;225343;1281;22590;-74
2023/05/09 17:32:41;;;;;;;2.40;2.20;;;;;;;15.05;48.49;99054.59;225520;1278;22615;-74
2023/05/09 17:37:43;;;;;;;2.80;1.90;;;;;;;14.80;48.51;99054.05;225546;1280;23252;-74
2023/05/09 17:42:45;;;;;;;4.20;2.30;;;;;;;14.59;48.94;99053.11;225520;1280;22539;-74
2023/05/09 17:47:50;;;;;;;2.20;2.00;;;;;;;14.38;49.11;99051.92;225590;1281;22613;-73
2023/05/09 17:53:24;;;;;;;2.20;2.00;;;;;;;14.18;49.55;99054.04;225477;1282;24323;-73
2023/05/09 17:58:26;;;;;;;4.60;2.00;;;;;;;14.00;49.91;99060.24;225439;1280;22543;-73
2023/05/09 18:03:30;;;;;;;3.50;2.30;;;;;;;13.80;50.10;99061.33;225506;1282;22534;-74
2023/05/09 18:08:36;;;;;;;2.30;2.10;;;;;;;13.57;50.51;99054.77;225365;1282;25053;-73
2023/05/09 18:13:50;;;;;;;3.70;2.40;;;;;;;13.32;50.87;99054.52;225448;1281;22559;-74
2023/05/09 18:18:58;;;;;;;6.90;2.90;;;;;;;13.13;51.13;99053.62;225435;1281;22539;-74
2023/05/09 18:24:01;;;;;;;4.20;2.50;;;;;;;12.92;51.51;99049.52;225531;1281;22532;-74
2023/05/09 18:29:04;;;;;;;3.50;2.30;;;;;;;12.73;51.93;99045.11;225522;1279;22494;-73
2023/05/09 18:34:12;;;;;;;3.70;2.60;;;;;;;12.55;52.27;99048.31;225517;1282;22516;-73
2023/05/09 18:39:15;;;;;;;4.30;3.10;;;;;;;12.41;52.48;99052.38;225543;1278;22597;-73
2023/05/09 18:44:22;;;;;;;4.50;3.90;;;;;;;12.25;52.73;99054.88;225471;1282;22654;-74
2023/05/09 18:49:37;;;;;;;6.00;3.00;;;;;;;12.10;53.11;99055.06;225474;1281;22536;-73
2023/05/09 18:54:51;;;;;;;5.80;3.40;;;;;;;11.89;53.32;99058.50;225506;1282;22551;-73
2023/05/09 18:59:57;;;;;;;5.50;3.60;;;;;;;11.70;53.69;99059.50;225429;1281;22539;-73
2023/05/09 19:05:08;;;;;;;5.00;4.00;;;;;;;11.51;54.09;99054.35;225559;1278;25944;-74
2023/05/09 19:10:11;;;;;;;4.70;3.70;;;;;;;11.40;54.46;99050.63;225529;1281;22547;-73
2023/05/09 19:15:14;;;;;;;4.60;3.50;;;;;;;11.31;54.77;99053.17;225610;1278;22528;-73
2023/05/09 19:20:33;;;;;;;5.20;3.10;;;;;;;11.20;54.88;99052.52;225570;1281;24257;-73
2023/05/09 19:25:39;;;;;;;5.30;3.30;;;;;;;11.08;55.00;99048.38;225531;1278;22543;-74
2023/05/09 19:30:41;;;;;;;6.80;3.80;;;;;;;11.01;55.38;99044.45;225555;1280;22539;-74
2023/05/09 19:35:49;;;;;;;3.50;3.20;;;;;;;10.93;55.67;99043.64;225441;1274;22550;-73
2023/05/09 19:40:58;;;;;;;5.30;3.70;;;;;;;10.83;55.98;99037.92;225548;1282;22547;-73
2023/05/09 19:46:05;;;;;;;6.10;3.80;;;;;;;10.79;56.05;99039.48;225583;1281;22539;-73
2023/05/09 19:51:11;;;;;;;6.10;3.70;;;;;;;10.71;56.26;99041.19;225510;1282;25278;-72
2023/05/09 19:56:16;;;;;;;7.30;3.80;;;;;;;10.61;56.35;99037.98;225562;1281;22540;-73
2023/05/09 20:01:19;;;;;;;7.60;3.50;;;;;;;10.54;56.43;99040.13;225368;1275;26291;-73
2023/05/09 20:06:24;;;;;;;5.50;3.40;;;;;;;10.54;56.72;99038.09;225549;1281;22535;-74
2023/05/09 20:11:30;;;;;;;4.50;3.30;;;;;;;10.58;56.58;99037.59;225412;1281;22559;-73
2023/05/09 20:16:32;;;;;;;6.50;4.10;;;;;;;10.65;56.65;99036.83;225480;1281;22542;-74
2023/05/09 20:21:37;;;;;;;6.60;4.30;;;;;;;10.72;56.34;99030.33;225570;1278;25336;-73
2023/05/09 20:26:41;;;;;;;5.30;4.10;;;;;;;10.77;56.24;99031.90;225582;1280;22543;-72
2023/05/09 20:31:49;;;;;;;5.30;4.10;;;;;;;10.78;56.12;99034.40;225564;1278;24251;-73
2023/05/09 20:37:00;;;;;;;5.90;4.00;;;;;;;10.78;56.38;99035.23;225523;1282;22539;-72
2023/05/09 20:42:18;;;;;;;7.80;4.40;;;;;;;10.81;56.06;99035.73;225533;1259;22542;-73
2023/05/09 20:47:45;;;;;;;7.90;4.00;;;;;;;10.80;56.49;99036.56;225506;1282;22523;-73
2023/05/09 20:52:50;;;;;;;6.60;4.70;;;;;;;10.80;56.30;99030.71;225411;1282;24285;-73
2023/05/09 20:57:55;;;;;;;8.30;4.40;;;;;;;10.76;56.28;99036.30;225541;1282;22543;-73
2023/05/09 21:03:08;;;;;;;9.20;4.60;;;;;;;10.68;56.21;99032.80;225563;1282;22544;-73
2023/05/09 21:08:11;;;;;;;7.70;4.80;;;;;;;10.61;56.66;99027.98;225554;1280;22536;-73
2023/05/09 21:13:23;;;;;;;9.00;4.90;;;;;;;10.58;56.75;99030.88;225582;1282;22554;-73
2023/05/09 21:18:32;;;;;;;6.90;4.80;;;;;;;10.51;56.78;99030.86;225523;1280;22539;-74
2023/05/09 21:23:37;;;;;;;10.90;5.60;;;;;;;10.47;56.92;99028.56;225456;1282;24244;-73
2023/05/09 21:28:57;;;;;;;9.90;5.20;;;;;;;10.44;57.25;99025.02;225422;1282;22914;-74
2023/05/09 21:34:12;;;;;;;8.00;5.10;;;;;;;10.38;57.10;99024.34;225448;1281;22582;-73
2023/05/09 21:39:30;;;;;;;11.20;5.70;;;;;;;10.34;57.49;99025.16;225542;1278;22532;-73
2023/05/09 21:44:55;;;;;;;8.40;5.30;;;;;;;10.29;57.75;99026.13;225580;1282;22550;-73
2023/05/09 21:50:16;;;;;;;7.80;5.30;;;;;;;10.20;57.72;99022.88;225551;1281;22646;-73
2023/05/09 21:55:41;;;;;;;8.20;5.60;;;;;;;10.08;57.90;99022.60;225553;1275;22566;-73
2023/05/09 22:00:47;;;;;;;9.20;5.30;;;;;;;9.88;58.23;99023.95;225529;1282;25284;-73
2023/05/09 22:06:00;;;;;;;6.80;5.40;;;;;;;9.72;58.08;99027.11;225565;1278;22556;-73
2023/05/09 22:11:09;;;;;;;8.40;5.30;;;;;;;9.54;58.36;99028.49;225546;1282;22556;-73
2023/05/09 22:16:21;;;;;;;8.80;5.40;;;;;;;9.35;58.71;99025.52;225613;1278;23323;-73
2023/05/09 22:21:23;;;;;;;8.10;6.10;;;;;;;9.18;59.37;99023.31;225527;1281;22539;-74
2023/05/09 22:26:52;;;;;;;8.00;5.30;;;;;;;8.99;59.75;99019.45;225416;1281;22548;-74
2023/05/09 22:32:06;;;;;;;9.50;4.90;;;;;;;8.76;60.12;99019.52;225525;1278;22539;-74
2023/05/09 22:37:15;;;;;;;8.30;5.50;;;;;;;8.58;60.78;99016.58;225365;1281;226781;-74
2023/05/09 22:42:30;;;;;;;9.70;6.20;;;;;;;8.40;61.53;99012.48;225521;1282;25407;-75
2023/05/09 22:47:43;;;;;;;8.50;6.00;;;;;;;8.26;62.02;99006.13;225394;1282;25284;-74
2023/05/09 22:53:06;;;;;;;10.30;7.30;;;;;;;8.15;62.10;99007.66;225500;1282;22546;-74
2023/05/09 22:58:13;;;;;;;10.30;7.30;;;;;;;8.04;62.33;99007.08;225133;1285;22696;-73
2023/05/09 23:03:30;;;;;;;8.50;7.00;;;;;;;7.96;62.67;99005.22;225126;1285;22685;-73
2023/05/09 23:08:34;;;;;;;13.10;7.80;;;;;;;7.87;62.95;99003.73;225046;1284;22723;-73
2023/05/09 23:13:44;;;;;;;10.40;7.50;;;;;;;7.77;63.54;99002.36;225068;1285;22546;-73
2023/05/09 23:18:53;;;;;;;8.80;6.50;;;;;;;7.68;63.67;98996.85;225169;1285;22578;-73
2023/05/09 23:24:25;;;;;;;10.50;6.40;;;;;;;7.59;63.72;98995.52;225113;1284;22578;-73
2023/05/09 23:29:32;;;;;;;9.50;6.70;;;;;;;7.52;64.35;98990.20;225488;1282;22542;-72
2023/05/09 23:34:42;;;;;;;10.30;6.40;;;;;;;7.44;64.74;98986.98;225416;1278;22539;-73
2023/05/09 23:39:45;;;;;;;7.80;6.00;;;;;;;7.35;64.91;98985.42;225456;1280;22549;-73
2023/05/09 23:44:59;;;;;;;9.80;6.90;;;;;;;7.28;64.73;98983.63;225456;1282;22563;-73
2023/05/09 23:50:11;;;;;;;8.80;6.80;;;;;;;7.21;65.09;98985.09;225614;1278;22548;-73
2023/05/09 23:55:15;;;;;;;;;;;;;;;7.14;65.66;98980.31;225520;1282;22540;-73
